createdAt,value
2022-11-07T00:01:10.043Z,7.25
2022-11-07T00:03:44.259Z,7.25
2022-11-07T00:06:17.428Z,7.28
2022-11-07T00:08:49.849Z,7.25
2022-11-07T00:11:22.437Z,7.25
2022-11-07T00:13:55.818Z,7.24
2022-11-07T00:16:29.758Z,7.28
2022-11-07T00:19:02.378Z,7.30
2022-11-07T00:21:35.360Z,7.29
2022-11-07T00:24:09.346Z,7.24
2022-11-07T00:26:42.158Z,7.18
2022-11-07T00:29:18.273Z,7.15
2022-11-07T00:31:51.648Z,7.18
2022-11-07T00:34:26.360Z,7.17
2022-11-07T00:36:59.148Z,7.19
2022-11-07T00:39:31.898Z,7.20
2022-11-07T00:42:04.795Z,7.19
2022-11-07T00:44:37.298Z,7.23
2022-11-07T00:47:10.138Z,7.21
2022-11-07T00:49:44.927Z,7.19
2022-11-07T00:52:17.697Z,7.25
2022-11-07T00:54:50.268Z,7.26
2022-11-07T00:57:23.071Z,7.32
2022-11-07T00:59:56.687Z,7.38
2022-11-07T01:02:29.896Z,7.38
2022-11-07T01:05:14.438Z,7.43
2022-11-07T01:07:48.628Z,7.47
2022-11-07T01:10:23.939Z,7.50
2022-11-07T01:12:57.018Z,7.49
2022-11-07T01:15:29.749Z,7.47
2022-11-07T01:18:05.310Z,7.46
2022-11-07T01:20:36.739Z,7.45
2022-11-07T01:23:09.586Z,7.40
2022-11-07T01:25:44.117Z,7.40
2022-11-07T01:28:17.026Z,7.41
2022-11-07T01:30:49.849Z,7.41
2022-11-07T01:33:22.569Z,7.42
2022-11-07T01:35:55.506Z,7.46
2022-11-07T01:38:28.228Z,7.48
2022-11-07T01:41:23.230Z,7.46
2022-11-07T01:43:59.905Z,7.49
2022-11-07T01:46:36.869Z,7.47
2022-11-07T01:49:15.386Z,7.40
2022-11-07T01:51:51.048Z,7.46
2022-11-07T01:54:28.108Z,7.48
2022-11-07T01:57:06.120Z,7.42
2022-11-07T01:59:39.309Z,7.34
2022-11-07T02:02:12.534Z,7.34
2022-11-07T02:04:45.779Z,7.33
2022-11-07T02:07:22.479Z,7.28
2022-11-07T02:09:56.410Z,7.30
2022-11-07T02:12:30.948Z,7.31
2022-11-07T02:15:04.110Z,7.30
2022-11-07T02:17:36.903Z,7.42
2022-11-07T02:20:11.269Z,7.48
2022-11-07T02:22:51.309Z,7.47
2022-11-07T02:25:25.479Z,7.50
2022-11-07T02:28:01.948Z,7.46
2022-11-07T02:30:35.956Z,7.51
2022-11-07T02:33:20.739Z,7.62
2022-11-07T02:35:54.956Z,7.61
2022-11-07T02:38:34.408Z,7.73
2022-11-07T02:41:09.929Z,7.77
2022-11-07T02:43:46.466Z,7.74
2022-11-07T02:46:20.108Z,7.79
2022-11-07T02:48:51.363Z,7.75
2022-11-07T02:51:24.250Z,7.74
2022-11-07T02:53:57.061Z,7.81
2022-11-07T02:56:29.693Z,7.88
2022-11-07T02:59:02.788Z,7.83
2022-11-07T03:01:35.503Z,7.76
2022-11-07T03:04:08.527Z,7.71
2022-11-07T03:06:41.499Z,7.71
2022-11-07T03:09:14.937Z,7.76
2022-11-07T03:11:48.491Z,7.75
2022-11-07T03:14:21.105Z,7.78
2022-11-07T03:16:53.766Z,7.77
2022-11-07T03:19:26.319Z,7.81
2022-11-07T03:22:00.669Z,7.73
2022-11-07T03:24:33.818Z,7.74
2022-11-07T03:27:06.368Z,7.69
2022-11-07T03:29:39.426Z,7.74
2022-11-07T03:32:13.340Z,7.70
2022-11-07T03:34:46.309Z,7.64
2022-11-07T03:37:18.930Z,7.70
2022-11-07T03:39:51.338Z,7.60
2022-11-07T03:42:23.948Z,7.61
2022-11-07T03:44:56.638Z,7.62
2022-11-07T03:47:29.169Z,7.55
2022-11-07T03:50:01.694Z,7.57
2022-11-07T03:52:37.423Z,7.58
2022-11-07T03:55:11.692Z,7.60
2022-11-07T03:57:44.632Z,7.63
2022-11-07T04:00:19.338Z,7.69
2022-11-07T04:02:52.152Z,7.67
2022-11-07T04:05:27.898Z,7.73
2022-11-07T04:08:00.586Z,7.79
2022-11-07T04:10:33.278Z,7.65
2022-11-07T04:13:23.273Z,7.59
2022-11-07T04:16:17.381Z,7.62
2022-11-07T04:18:50.359Z,7.56
2022-11-07T04:21:23.040Z,7.54
2022-11-07T04:23:55.880Z,7.60
2022-11-07T04:26:45.649Z,7.50
2022-11-07T04:29:18.308Z,7.66
2022-11-07T04:31:52.529Z,7.72
2022-11-07T04:34:25.079Z,7.74
2022-11-07T04:36:57.858Z,7.72
2022-11-07T04:39:30.498Z,7.73
2022-11-07T04:42:03.129Z,7.82
2022-11-07T04:44:35.857Z,7.79
2022-11-07T04:47:11.439Z,7.71
2022-11-07T04:49:43.999Z,7.76
2022-11-07T04:52:18.305Z,7.76
2022-11-07T04:54:52.538Z,7.73
2022-11-07T04:57:25.039Z,7.69
2022-11-07T05:00:00.706Z,7.67
2022-11-07T05:02:33.364Z,7.66
2022-11-07T05:05:06.566Z,7.68
2022-11-07T05:07:41.689Z,7.62
2022-11-07T05:10:21.387Z,7.67
2022-11-07T05:12:54.197Z,7.65
2022-11-07T05:15:27.328Z,7.60
2022-11-07T05:18:14.608Z,7.63
2022-11-07T05:20:47.498Z,7.71
2022-11-07T05:23:20.539Z,7.70
2022-11-07T05:25:54.847Z,7.69
2022-11-07T05:28:35.553Z,7.76
2022-11-07T05:31:16.259Z,7.79
2022-11-07T05:33:48.919Z,7.74
2022-11-07T05:36:23.728Z,7.70
2022-11-07T05:38:56.859Z,7.73
2022-11-07T05:41:30.289Z,7.67
2022-11-07T05:44:02.938Z,7.68
2022-11-07T05:46:35.460Z,7.72
2022-11-07T05:49:08.246Z,7.76
2022-11-07T05:51:41.829Z,7.78
2022-11-07T05:54:12.619Z,7.75
2022-11-07T05:56:45.686Z,7.77
2022-11-07T05:59:18.258Z,7.76
2022-11-07T06:01:51.890Z,7.80
2022-11-07T06:04:22.789Z,7.82
2022-11-07T06:06:55.519Z,7.82
2022-11-07T06:09:29.045Z,7.85
2022-11-07T06:12:04.188Z,7.88
2022-11-07T06:14:36.909Z,7.91
2022-11-07T06:17:09.818Z,8.03
2022-11-07T06:19:42.291Z,8.04
2022-11-07T06:22:17.708Z,8.03
2022-11-07T06:24:50.239Z,8.01
2022-11-07T06:27:22.995Z,7.96
2022-11-07T06:29:56.011Z,7.91
2022-11-07T06:32:31.264Z,7.93
2022-11-07T06:35:04.098Z,7.96
2022-11-07T06:37:36.773Z,7.94
2022-11-07T06:40:11.578Z,7.84
2022-11-07T06:42:45.258Z,7.95
2022-11-07T06:45:17.938Z,7.98
2022-11-07T06:47:50.878Z,8.03
2022-11-07T06:50:23.598Z,7.97
2022-11-07T06:52:56.189Z,8.14
2022-11-07T06:55:30.463Z,8.18
2022-11-07T06:58:04.105Z,8.29
2022-11-07T07:00:38.318Z,8.39
2022-11-07T07:03:28.062Z,8.47
2022-11-07T07:06:04.959Z,8.64
2022-11-07T07:08:42.172Z,8.76
2022-11-07T07:11:17.118Z,8.94
2022-11-07T07:13:49.748Z,9.00
2022-11-07T07:16:23.028Z,9.00
2022-11-07T07:18:56.278Z,9.01
2022-11-07T07:21:29.229Z,9.03
2022-11-07T07:24:01.813Z,9.13
2022-11-07T07:26:34.859Z,9.09
2022-11-07T07:29:07.648Z,8.94
2022-11-07T07:31:40.289Z,8.91
2022-11-07T07:34:12.989Z,8.94
2022-11-07T07:36:45.964Z,8.92
2022-11-07T07:39:18.556Z,8.93
2022-11-07T07:41:51.462Z,8.91
2022-11-07T07:44:26.136Z,8.86
2022-11-07T07:46:57.732Z,8.84
2022-11-07T07:49:30.410Z,8.66
2022-11-07T07:52:03.169Z,8.72
2022-11-07T07:54:35.868Z,8.92
2022-11-07T08:00:13.543Z,9.09
2022-11-07T08:02:48.847Z,9.18
2022-11-07T08:05:21.749Z,9.04
2022-11-07T08:07:54.630Z,9.21
2022-11-07T08:10:41.379Z,9.39
2022-11-07T08:13:18.094Z,9.51
2022-11-07T08:15:51.111Z,9.74
2022-11-07T08:18:40.217Z,9.86
2022-11-07T08:21:13.236Z,10.00
2022-11-07T08:23:46.017Z,10.13
2022-11-07T08:26:21.701Z,10.20
2022-11-07T08:28:57.428Z,10.19
2022-11-07T08:31:30.290Z,10.31
2022-11-07T08:34:03.682Z,10.33
2022-11-07T08:36:36.378Z,10.49
2022-11-07T08:39:09.531Z,10.50
2022-11-07T08:41:42.392Z,10.66
2022-11-07T08:44:15.231Z,10.80
2022-11-07T08:46:48.149Z,10.99
2022-11-07T08:49:21.130Z,11.04
2022-11-07T08:51:54.151Z,11.08
2022-11-07T08:54:27.457Z,11.12
2022-11-07T08:57:00.190Z,11.28
2022-11-07T08:59:33.102Z,11.16
2022-11-07T09:04:59.537Z,11.34
2022-11-07T09:07:32.241Z,11.36
2022-11-07T09:10:05.270Z,11.40
2022-11-07T09:12:38.281Z,11.40
2022-11-07T09:15:13.070Z,11.44
2022-11-07T09:17:47.071Z,11.53
2022-11-07T09:20:21.830Z,11.63
2022-11-07T09:22:59.579Z,11.62
2022-11-07T09:25:32.290Z,11.72
2022-11-07T09:28:08.160Z,11.80
2022-11-07T09:30:43.430Z,11.79
2022-11-07T09:33:16.111Z,11.81
2022-11-07T09:38:40.338Z,11.82
2022-11-07T09:41:23.740Z,11.73
2022-11-07T09:44:19.770Z,11.83
2022-11-07T09:47:00.909Z,11.77
2022-11-07T09:49:39.478Z,11.74
2022-11-07T09:52:19.045Z,11.71
2022-11-07T09:54:59.949Z,11.74
2022-11-07T09:57:36.194Z,11.68
2022-11-07T10:00:16.522Z,11.78
2022-11-07T10:02:51.692Z,11.76
2022-11-07T10:05:36.169Z,11.77
2022-11-07T10:08:14.897Z,11.73
2022-11-07T10:10:57.539Z,11.67
2022-11-07T10:13:52.199Z,11.68
2022-11-07T10:16:35.056Z,11.58
2022-11-07T10:19:20.829Z,11.68
2022-11-07T10:22:06.086Z,11.45
2022-11-07T10:24:49.129Z,11.39
2022-11-07T10:27:23.839Z,11.40
2022-11-07T10:29:56.689Z,11.37
2022-11-07T10:32:36.317Z,11.39
2022-11-07T10:35:24.878Z,11.40
2022-11-07T10:38:02.158Z,11.43
2022-11-07T10:40:42.029Z,11.36
2022-11-07T10:43:24.763Z,11.32
2022-11-07T10:45:58.990Z,11.32
2022-11-07T10:48:48.954Z,11.32
2022-11-07T10:51:23.327Z,11.38
2022-11-07T10:53:55.967Z,11.33
2022-11-07T10:56:28.608Z,11.24
2022-11-07T10:59:03.000Z,11.23
2022-11-07T11:01:36.047Z,11.18
2022-11-07T11:04:09.158Z,11.22
2022-11-07T11:06:42.144Z,11.15
2022-11-07T11:09:20.598Z,11.10
2022-11-07T11:11:56.838Z,11.02
2022-11-07T11:14:29.359Z,11.17
2022-11-07T11:17:01.970Z,11.06
2022-11-07T11:19:42.499Z,11.13
2022-11-07T11:22:22.489Z,10.89
2022-11-07T11:25:14.769Z,10.83
2022-11-07T11:27:49.942Z,10.82
2022-11-07T11:30:23.630Z,10.69
2022-11-07T11:33:05.949Z,10.68
2022-11-07T11:35:45.423Z,10.82
2022-11-07T11:38:24.669Z,10.83
2022-11-07T11:41:07.583Z,10.78
2022-11-07T11:43:48.438Z,10.82
2022-11-07T11:46:29.407Z,10.78
2022-11-07T11:49:14.901Z,10.77
2022-11-07T11:51:53.937Z,10.77
2022-11-07T11:54:27.142Z,10.79
2022-11-07T12:00:28.889Z,10.84
2022-11-07T12:03:28.029Z,10.90
2022-11-07T12:06:20.637Z,10.77
2022-11-07T12:09:18.451Z,10.77
2022-11-07T12:12:03.577Z,10.82
2022-11-07T12:14:57.090Z,10.81
2022-11-07T12:17:34.228Z,10.84
2022-11-07T12:20:19.269Z,10.94
2022-11-07T12:23:13.492Z,11.10
2022-11-07T12:25:51.349Z,11.24
2022-11-07T12:28:38.839Z,11.40
2022-11-07T12:31:27.757Z,11.45
2022-11-07T12:34:18.553Z,11.51
2022-11-07T12:37:07.713Z,11.52
2022-11-07T12:39:54.039Z,11.54
2022-11-07T12:42:43.318Z,11.62
2022-11-07T12:45:25.179Z,11.53
2022-11-07T12:48:17.169Z,11.59
2022-11-07T12:50:58.203Z,11.61
2022-11-07T12:53:40.799Z,11.66
2022-11-07T12:56:17.100Z,11.71
2022-11-07T12:58:53.084Z,11.75
2022-11-07T13:01:30.610Z,11.81
2022-11-07T13:07:05.035Z,11.70
2022-11-07T13:09:43.071Z,11.70
2022-11-07T13:12:28.849Z,11.74
2022-11-07T13:15:01.920Z,11.60
2022-11-07T13:17:44.871Z,11.50
2022-11-07T13:20:32.392Z,11.45
2022-11-07T13:23:15.549Z,11.50
2022-11-07T13:25:58.909Z,11.49
2022-11-07T13:28:39.698Z,11.52
2022-11-07T13:31:35.301Z,11.51
2022-11-07T13:34:28.600Z,11.52
2022-11-07T13:37:05.419Z,11.60
2022-11-07T13:39:38.222Z,11.56
2022-11-07T13:42:19.279Z,11.48
2022-11-07T13:44:58.060Z,11.44
2022-11-07T13:47:37.039Z,11.49
2022-11-07T13:50:19.610Z,11.50
2022-11-07T13:53:00.952Z,11.39
2022-11-07T13:55:45.350Z,11.36
2022-11-07T13:58:21.431Z,11.30
2022-11-07T14:00:54.290Z,11.39
2022-11-07T14:03:29.564Z,11.31
2022-11-07T14:06:04.051Z,11.37
2022-11-07T14:08:40.390Z,11.31
2022-11-07T14:11:21.171Z,11.24
2022-11-07T14:13:55.923Z,11.26
2022-11-07T14:16:31.189Z,11.24
2022-11-07T14:19:27.142Z,11.14
2022-11-07T14:22:02.902Z,11.21
2022-11-07T14:24:35.556Z,11.25
2022-11-07T14:27:15.649Z,11.17
2022-11-07T14:29:57.859Z,11.16
2022-11-07T14:32:32.192Z,11.15
2022-11-07T14:35:11.361Z,11.05
2022-11-07T14:37:45.149Z,11.04
2022-11-07T14:40:17.960Z,11.01
2022-11-07T14:42:53.430Z,11.00
2022-11-07T14:46:05.709Z,10.98
2022-11-07T14:48:26.199Z,10.93
2022-11-07T14:51:00.788Z,10.89
2022-11-07T14:53:39.639Z,10.86
2022-11-07T14:56:19.352Z,10.77
2022-11-07T14:58:53.000Z,10.74
2022-11-07T15:01:32.864Z,10.67
2022-11-07T15:04:24.671Z,10.63
2022-11-07T15:06:57.457Z,10.56
2022-11-07T15:09:37.580Z,10.50
2022-11-07T15:12:20.389Z,10.42
2022-11-07T15:15:07.049Z,10.34
2022-11-07T15:17:47.880Z,10.29
2022-11-07T15:20:34.048Z,10.24
2022-11-07T15:23:28.080Z,10.13
2022-11-07T15:26:11.286Z,10.06
2022-11-07T15:28:51.484Z,9.99
2022-11-07T15:31:26.906Z,9.92
2022-11-07T15:34:01.119Z,9.85
2022-11-07T15:36:38.570Z,9.82
2022-11-07T15:39:16.709Z,9.77
2022-11-07T15:41:54.537Z,9.74
2022-11-07T15:44:27.224Z,9.71
2022-11-07T15:46:59.981Z,9.70
2022-11-07T15:49:38.062Z,9.68
2022-11-07T15:52:11.537Z,9.58
2022-11-07T15:54:43.518Z,9.55
2022-11-07T15:57:16.658Z,9.44
2022-11-07T15:59:50.791Z,9.39
2022-11-07T16:02:27.017Z,9.40
2022-11-07T16:05:00.668Z,9.32
2022-11-07T16:07:33.809Z,9.33
2022-11-07T16:10:18.238Z,9.31
2022-11-07T16:12:51.131Z,9.24
2022-11-07T16:15:27.038Z,9.16
2022-11-07T16:18:01.499Z,9.03
2022-11-07T16:20:34.113Z,8.98
2022-11-07T16:23:07.084Z,8.97
2022-11-07T16:25:41.634Z,8.97
2022-11-07T16:28:30.600Z,8.98
2022-11-07T16:31:03.812Z,8.84
2022-11-07T16:33:36.660Z,8.81
2022-11-07T16:36:22.307Z,8.73
2022-11-07T16:38:55.610Z,8.66
2022-11-07T16:41:29.270Z,8.60
2022-11-07T16:44:02.951Z,8.57
2022-11-07T16:46:37.074Z,8.58
2022-11-07T16:49:14.556Z,8.55
2022-11-07T16:51:47.805Z,8.58
2022-11-07T16:54:20.454Z,8.57
2022-11-07T16:56:53.894Z,8.53
2022-11-07T16:59:27.665Z,8.39
2022-11-07T17:02:00.365Z,8.27
2022-11-07T17:04:33.326Z,8.25
2022-11-07T17:07:05.946Z,8.19
2022-11-07T17:09:38.525Z,8.19
2022-11-07T17:12:16.697Z,8.19
2022-11-07T17:14:52.918Z,8.19
2022-11-07T17:17:30.556Z,8.21
2022-11-07T17:20:49.384Z,8.23
2022-11-07T17:23:17.834Z,8.20
2022-11-07T17:25:55.746Z,8.20
2022-11-07T17:28:28.660Z,8.15
2022-11-07T17:31:01.334Z,8.13
2022-11-07T17:33:36.085Z,8.12
2022-11-07T17:36:20.544Z,8.11
2022-11-07T17:38:53.843Z,8.14
2022-11-07T17:41:30.373Z,8.15
2022-11-07T17:44:04.098Z,8.09
2022-11-07T17:46:38.415Z,8.08
2022-11-07T17:49:15.455Z,8.04
2022-11-07T17:51:48.979Z,8.02
2022-11-07T17:54:28.208Z,7.99
2022-11-07T17:57:04.184Z,7.92
2022-11-07T17:59:39.851Z,7.93
2022-11-07T18:02:19.823Z,7.94
2022-11-07T18:05:00.329Z,7.94
2022-11-07T18:07:33.924Z,7.94
2022-11-07T18:10:07.936Z,7.91
2022-11-07T18:12:41.166Z,7.88
2022-11-07T18:15:14.631Z,7.87
2022-11-07T18:17:47.538Z,7.83
2022-11-07T18:20:21.725Z,7.81
2022-11-07T18:22:56.934Z,7.82
2022-11-07T18:25:31.975Z,7.77
2022-11-07T18:28:08.034Z,7.73
2022-11-07T18:30:44.484Z,7.71
2022-11-07T18:33:18.848Z,7.70
2022-11-07T18:35:51.634Z,7.69
2022-11-07T18:38:24.298Z,7.68
2022-11-07T18:41:05.255Z,7.64
2022-11-07T18:43:39.425Z,7.63
2022-11-07T18:46:15.539Z,7.61
2022-11-07T18:48:49.375Z,7.58
2022-11-07T18:51:24.906Z,7.58
2022-11-07T18:53:58.355Z,7.58
2022-11-07T18:56:35.325Z,7.59
2022-11-07T18:59:08.763Z,7.58
2022-11-07T19:01:42.530Z,7.56
2022-11-07T19:04:16.216Z,7.46
2022-11-07T19:06:58.811Z,7.44
2022-11-07T19:09:34.134Z,7.43
2022-11-07T19:12:08.345Z,7.40
2022-11-07T19:14:42.462Z,7.41
2022-11-07T19:17:16.189Z,7.39
2022-11-07T19:19:49.905Z,7.37
2022-11-07T19:22:25.276Z,7.37
2022-11-07T19:24:59.322Z,7.39
2022-11-07T19:27:33.345Z,7.35
2022-11-07T19:30:07.765Z,7.31
2022-11-07T19:32:43.454Z,7.30
2022-11-07T19:35:27.505Z,7.33
2022-11-07T19:38:02.594Z,7.32
2022-11-07T19:40:38.235Z,7.31
2022-11-07T19:43:11.287Z,7.33
2022-11-07T19:45:47.525Z,7.33
2022-11-07T19:48:20.664Z,7.24
2022-11-07T19:50:54.554Z,7.28
2022-11-07T19:53:28.056Z,7.26
2022-11-07T19:56:06.166Z,7.27
2022-11-07T19:58:40.675Z,7.25
2022-11-07T20:01:19.927Z,7.23
2022-11-07T20:03:54.395Z,7.18
2022-11-07T20:06:30.795Z,7.19
2022-11-07T20:09:04.075Z,7.24
2022-11-07T20:11:37.345Z,7.25
2022-11-07T20:14:12.697Z,7.21
2022-11-07T20:16:46.484Z,7.17
2022-11-07T20:19:18.976Z,7.13
2022-11-07T20:21:54.247Z,7.08
2022-11-07T20:24:26.886Z,7.02
2022-11-07T20:26:59.555Z,7.02
2022-11-07T20:29:32.116Z,7.00
2022-11-07T20:32:05.632Z,6.97
2022-11-07T20:34:36.359Z,6.95
2022-11-07T20:37:10.472Z,6.86
2022-11-07T20:39:57.875Z,6.89
2022-11-07T20:42:31.095Z,6.85
2022-11-07T20:45:06.651Z,6.83
2022-11-07T20:47:39.546Z,6.78
2022-11-07T20:50:31.520Z,6.77
2022-11-07T20:53:05.854Z,6.76
2022-11-07T20:55:43.995Z,6.77
2022-11-07T20:58:22.167Z,6.75
2022-11-07T21:00:58.186Z,6.75
2022-11-07T21:03:33.473Z,6.66
2022-11-07T21:06:03.986Z,6.56
2022-11-07T21:08:37.439Z,6.47
2022-11-07T21:11:08.607Z,6.47
2022-11-07T21:13:51.548Z,6.41
2022-11-07T21:16:26.377Z,6.42
2022-11-07T21:19:00.445Z,6.35
2022-11-07T21:21:34.084Z,6.36
2022-11-07T21:24:06.895Z,6.36
2022-11-07T21:26:41.095Z,6.33
2022-11-07T21:29:15.805Z,6.30
2022-11-07T21:31:48.641Z,6.26
2022-11-07T21:34:21.606Z,6.24
2022-11-07T21:36:54.158Z,6.25
2022-11-07T21:39:27.007Z,6.19
2022-11-07T21:42:02.863Z,6.14
2022-11-07T21:44:36.344Z,6.14
2022-11-07T21:47:09.164Z,6.19
2022-11-07T21:49:42.084Z,6.19
2022-11-07T21:52:14.723Z,6.18
2022-11-07T21:54:47.536Z,6.16
2022-11-07T21:57:20.235Z,6.14
2022-11-07T21:59:54.985Z,6.12
2022-11-07T22:02:29.789Z,6.10
2022-11-07T22:05:03.894Z,6.15
2022-11-07T22:07:38.433Z,6.20
2022-11-07T22:10:12.334Z,6.07
2022-11-07T22:12:45.296Z,6.04
2022-11-07T22:15:18.061Z,6.05
2022-11-07T22:17:51.014Z,6.10
2022-11-07T22:20:24.064Z,6.25
2022-11-07T22:22:56.725Z,6.14
2022-11-07T22:25:29.465Z,6.18
2022-11-07T22:28:02.115Z,6.30
2022-11-07T22:30:34.996Z,6.38
2022-11-07T22:33:07.965Z,6.21
2022-11-07T22:35:40.324Z,6.20
2022-11-07T22:38:13.121Z,6.20
2022-11-07T22:40:48.963Z,6.21
2022-11-07T22:43:21.755Z,6.18
2022-11-07T22:45:56.706Z,6.16
2022-11-07T22:48:32.454Z,6.19
2022-11-07T22:51:11.975Z,6.16
2022-11-07T22:53:45.312Z,6.26
2022-11-07T22:56:21.098Z,6.07
2022-11-07T22:58:54.166Z,6.10
2022-11-07T23:01:28.459Z,6.01
2022-11-07T23:04:05.205Z,5.98
2022-11-07T23:06:39.794Z,6.05
2022-11-07T23:09:15.125Z,5.92
2022-11-07T23:11:48.977Z,5.92
2022-11-07T23:14:22.973Z,6.00
2022-11-07T23:16:58.014Z,5.95
2022-11-07T23:19:30.463Z,5.93
2022-11-07T23:22:02.863Z,5.86
2022-11-07T23:24:37.418Z,5.92
2022-11-07T23:27:09.792Z,5.97
2022-11-07T23:29:42.303Z,5.99
2022-11-07T23:32:15.765Z,5.98
2022-11-07T23:34:50.642Z,5.96
2022-11-07T23:37:22.924Z,5.95
2022-11-07T23:39:56.402Z,5.95
2022-11-07T23:42:31.571Z,5.94
2022-11-07T23:45:21.012Z,5.94
2022-11-07T23:48:10.701Z,5.93
2022-11-07T23:51:01.435Z,5.91
2022-11-07T23:53:51.923Z,5.86
2022-11-07T23:56:27.184Z,5.85
2022-11-07T23:59:17.076Z,5.83
